sensor_id;sensor_type;location;lat;lon;timestamp;temperature;humidity
14783;DHT22;7483;50.498;12.138;2022-11-27T00:01:33;4.50;99.90
14783;DHT22;7483;50.498;12.138;2022-11-27T00:04:04;4.40;99.90
14783;DHT22;7483;50.498;12.138;2022-11-27T00:06:35;4.40;99.90
14783;DHT22;7483;50.498;12.138;2022-11-27T00:09:05;4.40;99.90
14783;DHT22;7483;50.498;12.138;2022-11-27T00:11:35;4.40;99.90
14783;DHT22;7483;50.498;12.138;2022-11-27T00:14:06;4.50;99.90
14783;DHT22;7483;50.498;12.138;2022-11-27T00:16:34;4.50;99.90
14783;DHT22;7483;50.498;12.138;2022-11-27T00:19:02;4.60;99.90
14783;DHT22;7483;50.498;12.138;2022-11-27T00:21:32;4.70;99.90
14783;DHT22;7483;50.498;12.138;2022-11-27T00:24:04;4.60;99.90
14783;DHT22;7483;50.498;12.138;2022-11-27T00:26:34;4.80;99.90
14783;DHT22;7483;50.498;12.138;2022-11-27T00:29:04;4.70;99.90
14783;DHT22;7483;50.498;12.138;2022-11-27T00:31:34;4.50;99.90
14783;DHT22;7483;50.498;12.138;2022-11-27T00:34:06;4.40;99.90
14783;DHT22;7483;50.498;12.138;2022-11-27T00:36:37;4.20;99.90
14783;DHT22;7483;50.498;12.138;2022-11-27T00:39:11;4.20;99.90
14783;DHT22;7483;50.498;12.138;2022-11-27T00:41:39;4.20;99.90
14783;DHT22;7483;50.498;12.138;2022-11-27T00:44:07;4.20;99.90
14783;DHT22;7483;50.498;12.138;2022-11-27T00:46:35;4.10;99.90
14783;DHT22;7483;50.498;12.138;2022-11-27T00:49:05;4.20;99.90
14783;DHT22;7483;50.498;12.138;2022-11-27T00:51:35;4.00;99.90
14783;DHT22;7483;50.498;12.138;2022-11-27T00:54:04;3.90;99.90
14783;DHT22;7483;50.498;12.138;2022-11-27T00:56:34;4.00;99.90
14783;DHT22;7483;50.498;12.138;2022-11-27T00:59:05;4.10;99.90
14783;DHT22;7483;50.498;12.138;2022-11-27T01:01:37;4.10;99.90
14783;DHT22;7483;50.498;12.138;2022-11-27T01:04:10;4.00;99.90
14783;DHT22;7483;50.498;12.138;2022-11-27T01:06:41;4.00;99.90
14783;DHT22;7483;50.498;12.138;2022-11-27T01:09:10;3.90;99.90
14783;DHT22;7483;50.498;12.138;2022-11-27T01:11:39;3.90;99.90
14783;DHT22;7483;50.498;12.138;2022-11-27T01:14:10;3.80;99.90
14783;DHT22;7483;50.498;12.138;2022-11-27T01:16:40;3.80;99.90
14783;DHT22;7483;50.498;12.138;2022-11-27T01:19:10;3.80;99.90
14783;DHT22;7483;50.498;12.138;2022-11-27T01:21:40;3.80;99.90
14783;DHT22;7483;50.498;12.138;2022-11-27T01:24:11;3.90;99.90
14783;DHT22;7483;50.498;12.138;2022-11-27T01:26:41;3.80;99.90
14783;DHT22;7483;50.498;12.138;2022-11-27T01:29:10;3.80;99.90
14783;DHT22;7483;50.498;12.138;2022-11-27T01:31:39;3.70;99.90
14783;DHT22;7483;50.498;12.138;2022-11-27T01:34:12;3.60;99.90
14783;DHT22;7483;50.498;12.138;2022-11-27T01:36:42;3.50;99.90
14783;DHT22;7483;50.498;12.138;2022-11-27T01:39:14;3.50;99.90
14783;DHT22;7483;50.498;12.138;2022-11-27T01:41:46;3.30;99.90
14783;DHT22;7483;50.498;12.138;2022-11-27T01:44:45;3.30;99.90
14783;DHT22;7483;50.498;12.138;2022-11-27T01:47:26;3.40;99.90
14783;DHT22;7483;50.498;12.138;2022-11-27T01:50:05;3.30;99.90
14783;DHT22;7483;50.498;12.138;2022-11-27T01:52:41;3.20;99.90
14783;DHT22;7483;50.498;12.138;2022-11-27T01:55:18;3.30;99.90
14783;DHT22;7483;50.498;12.138;2022-11-27T01:57:55;3.20;99.90
14783;DHT22;7483;50.498;12.138;2022-11-27T02:00:26;3.20;99.90
14783;DHT22;7483;50.498;12.138;2022-11-27T02:02:55;3.20;99.90
14783;DHT22;7483;50.498;12.138;2022-11-27T02:05:25;3.20;99.90
14783;DHT22;7483;50.498;12.138;2022-11-27T02:07:57;3.10;99.90
14783;DHT22;7483;50.498;12.138;2022-11-27T02:10:35;3.10;99.90
14783;DHT22;7483;50.498;12.138;2022-11-27T02:13:12;3.20;99.90
14783;DHT22;7483;50.498;12.138;2022-11-27T02:15:48;3.20;99.90
14783;DHT22;7483;50.498;12.138;2022-11-27T02:18:26;3.30;99.90
14783;DHT22;7483;50.498;12.138;2022-11-27T02:21:03;3.20;99.90
14783;DHT22;7483;50.498;12.138;2022-11-27T02:23:57;3.10;99.90
14783;DHT22;7483;50.498;12.138;2022-11-27T02:27:09;3.10;99.90
14783;DHT22;7483;50.498;12.138;2022-11-27T02:29:48;3.20;99.90
14783;DHT22;7483;50.498;12.138;2022-11-27T02:32:24;3.20;99.90
14783;DHT22;7483;50.498;12.138;2022-11-27T02:35:00;3.20;99.90
14783;DHT22;7483;50.498;12.138;2022-11-27T02:37:35;3.10;99.90
14783;DHT22;7483;50.498;12.138;2022-11-27T02:40:12;3.10;99.90
14783;DHT22;7483;50.498;12.138;2022-11-27T02:42:48;3.20;99.90
14783;DHT22;7483;50.498;12.138;2022-11-27T02:45:24;3.10;99.90
14783;DHT22;7483;50.498;12.138;2022-11-27T02:47:56;3.10;99.90
14783;DHT22;7483;50.498;12.138;2022-11-27T02:50:26;3.00;99.90
14783;DHT22;7483;50.498;12.138;2022-11-27T02:52:59;3.00;99.90
14783;DHT22;7483;50.498;12.138;2022-11-27T02:55:33;3.00;99.90
14783;DHT22;7483;50.498;12.138;2022-11-27T02:58:07;3.10;99.90
14783;DHT22;7483;50.498;12.138;2022-11-27T03:00:42;2.90;99.90
14783;DHT22;7483;50.498;12.138;2022-11-27T03:03:16;3.00;99.90
14783;DHT22;7483;50.498;12.138;2022-11-27T03:05:49;3.00;99.90
14783;DHT22;7483;50.498;12.138;2022-11-27T03:08:24;3.00;99.90
14783;DHT22;7483;50.498;12.138;2022-11-27T03:11:02;2.90;99.90
14783;DHT22;7483;50.498;12.138;2022-11-27T03:13:33;2.90;99.90
14783;DHT22;7483;50.498;12.138;2022-11-27T03:16:09;2.90;99.90
14783;DHT22;7483;50.498;12.138;2022-11-27T03:18:43;2.90;99.90
14783;DHT22;7483;50.498;12.138;2022-11-27T03:21:26;2.80;99.90
14783;DHT22;7483;50.498;12.138;2022-11-27T03:23:57;2.70;99.90
14783;DHT22;7483;50.498;12.138;2022-11-27T03:26:26;2.80;99.90
14783;DHT22;7483;50.498;12.138;2022-11-27T03:28:55;2.80;99.90
14783;DHT22;7483;50.498;12.138;2022-11-27T03:31:28;2.60;99.90
14783;DHT22;7483;50.498;12.138;2022-11-27T03:33:57;2.60;99.90
14783;DHT22;7483;50.498;12.138;2022-11-27T03:36:25;2.60;99.90
14783;DHT22;7483;50.498;12.138;2022-11-27T03:38:54;2.60;99.90
14783;DHT22;7483;50.498;12.138;2022-11-27T03:41:26;2.50;99.90
14783;DHT22;7483;50.498;12.138;2022-11-27T03:44:06;2.60;99.90
14783;DHT22;7483;50.498;12.138;2022-11-27T03:46:45;2.50;99.90
14783;DHT22;7483;50.498;12.138;2022-11-27T03:49:26;2.60;99.90
14783;DHT22;7483;50.498;12.138;2022-11-27T03:52:06;2.60;99.90
14783;DHT22;7483;50.498;12.138;2022-11-27T03:54:46;2.60;99.90
14783;DHT22;7483;50.498;12.138;2022-11-27T03:57:23;2.50;99.90
14783;DHT22;7483;50.498;12.138;2022-11-27T03:59:58;2.50;99.90
14783;DHT22;7483;50.498;12.138;2022-11-27T04:02:40;2.40;99.90
14783;DHT22;7483;50.498;12.138;2022-11-27T04:05:10;2.40;99.90
14783;DHT22;7483;50.498;12.138;2022-11-27T04:07:39;2.30;99.90
14783;DHT22;7483;50.498;12.138;2022-11-27T04:10:10;2.30;99.90
14783;DHT22;7483;50.498;12.138;2022-11-27T04:12:39;2.30;99.90
14783;DHT22;7483;50.498;12.138;2022-11-27T04:15:08;2.30;99.90
14783;DHT22;7483;50.498;12.138;2022-11-27T04:17:38;2.30;99.90
14783;DHT22;7483;50.498;12.138;2022-11-27T04:20:07;2.20;99.90
14783;DHT22;7483;50.498;12.138;2022-11-27T04:22:37;2.20;99.90
14783;DHT22;7483;50.498;12.138;2022-11-27T04:25:06;2.20;99.90
14783;DHT22;7483;50.498;12.138;2022-11-27T04:27:34;2.20;99.90
14783;DHT22;7483;50.498;12.138;2022-11-27T04:30:03;2.20;99.90
14783;DHT22;7483;50.498;12.138;2022-11-27T04:32:32;2.20;99.90
14783;DHT22;7483;50.498;12.138;2022-11-27T04:35:02;2.10;99.90
14783;DHT22;7483;50.498;12.138;2022-11-27T04:37:30;2.10;99.90
14783;DHT22;7483;50.498;12.138;2022-11-27T04:39:58;2.10;99.90
14783;DHT22;7483;50.498;12.138;2022-11-27T04:42:26;2.10;99.90
14783;DHT22;7483;50.498;12.138;2022-11-27T04:44:54;2.10;99.90
14783;DHT22;7483;50.498;12.138;2022-11-27T04:47:23;2.10;99.90
14783;DHT22;7483;50.498;12.138;2022-11-27T04:49:51;2.10;99.90
14783;DHT22;7483;50.498;12.138;2022-11-27T04:52:20;2.10;99.90
14783;DHT22;7483;50.498;12.138;2022-11-27T04:54:48;2.10;99.90
14783;DHT22;7483;50.498;12.138;2022-11-27T04:57:24;2.00;99.90
14783;DHT22;7483;50.498;12.138;2022-11-27T04:59:52;2.10;99.90
14783;DHT22;7483;50.498;12.138;2022-11-27T05:02:20;2.10;99.90
14783;DHT22;7483;50.498;12.138;2022-11-27T05:04:48;2.10;99.90
14783;DHT22;7483;50.498;12.138;2022-11-27T05:07:16;2.10;99.90
14783;DHT22;7483;50.498;12.138;2022-11-27T05:09:46;2.10;99.90
14783;DHT22;7483;50.498;12.138;2022-11-27T05:12:14;2.10;99.90
14783;DHT22;7483;50.498;12.138;2022-11-27T05:14:42;2.10;99.90
14783;DHT22;7483;50.498;12.138;2022-11-27T05:17:10;2.20;99.90
14783;DHT22;7483;50.498;12.138;2022-11-27T05:19:38;2.10;99.90
14783;DHT22;7483;50.498;12.138;2022-11-27T05:22:06;2.10;99.90
14783;DHT22;7483;50.498;12.138;2022-11-27T05:24:34;2.00;99.90
14783;DHT22;7483;50.498;12.138;2022-11-27T05:27:04;2.10;99.90
14783;DHT22;7483;50.498;12.138;2022-11-27T05:29:32;2.10;99.90
14783;DHT22;7483;50.498;12.138;2022-11-27T05:32:01;2.10;99.90
14783;DHT22;7483;50.498;12.138;2022-11-27T05:34:29;2.10;99.90
14783;DHT22;7483;50.498;12.138;2022-11-27T05:36:57;2.00;99.90
14783;DHT22;7483;50.498;12.138;2022-11-27T05:39:25;1.90;99.90
14783;DHT22;7483;50.498;12.138;2022-11-27T05:41:53;1.90;99.90
14783;DHT22;7483;50.498;12.138;2022-11-27T05:44:22;1.90;99.90
14783;DHT22;7483;50.498;12.138;2022-11-27T05:46:50;1.90;99.90
14783;DHT22;7483;50.498;12.138;2022-11-27T05:49:19;1.80;99.90
14783;DHT22;7483;50.498;12.138;2022-11-27T05:51:47;1.80;99.90
14783;DHT22;7483;50.498;12.138;2022-11-27T05:54:17;1.80;99.90
14783;DHT22;7483;50.498;12.138;2022-11-27T05:56:46;1.80;99.90
14783;DHT22;7483;50.498;12.138;2022-11-27T05:59:14;1.80;99.90
14783;DHT22;7483;50.498;12.138;2022-11-27T06:01:43;1.80;99.90
14783;DHT22;7483;50.498;12.138;2022-11-27T06:04:12;1.90;99.90
14783;DHT22;7483;50.498;12.138;2022-11-27T06:06:40;1.90;99.90
14783;DHT22;7483;50.498;12.138;2022-11-27T06:09:08;2.00;99.90
14783;DHT22;7483;50.498;12.138;2022-11-27T06:11:39;2.00;99.90
14783;DHT22;7483;50.498;12.138;2022-11-27T06:14:09;2.10;99.90
14783;DHT22;7483;50.498;12.138;2022-11-27T06:16:38;2.10;99.90
14783;DHT22;7483;50.498;12.138;2022-11-27T06:19:07;2.10;99.90
14783;DHT22;7483;50.498;12.138;2022-11-27T06:21:35;2.10;99.90
14783;DHT22;7483;50.498;12.138;2022-11-27T06:24:04;2.10;99.90
14783;DHT22;7483;50.498;12.138;2022-11-27T06:26:33;2.00;99.90
14783;DHT22;7483;50.498;12.138;2022-11-27T06:29:02;1.90;99.90
14783;DHT22;7483;50.498;12.138;2022-11-27T06:31:31;1.90;99.90
14783;DHT22;7483;50.498;12.138;2022-11-27T06:34:00;1.80;99.90
14783;DHT22;7483;50.498;12.138;2022-11-27T06:36:32;1.80;99.90
14783;DHT22;7483;50.498;12.138;2022-11-27T06:39:03;1.70;99.90
14783;DHT22;7483;50.498;12.138;2022-11-27T06:41:32;1.70;99.90
14783;DHT22;7483;50.498;12.138;2022-11-27T06:44:01;1.80;99.90
14783;DHT22;7483;50.498;12.138;2022-11-27T06:46:29;1.70;99.90
14783;DHT22;7483;50.498;12.138;2022-11-27T06:48:58;1.70;99.90
14783;DHT22;7483;50.498;12.138;2022-11-27T06:51:30;1.80;99.90
14783;DHT22;7483;50.498;12.138;2022-11-27T06:53:59;1.80;99.90
14783;DHT22;7483;50.498;12.138;2022-11-27T06:56:29;1.80;99.90
14783;DHT22;7483;50.498;12.138;2022-11-27T06:58:59;1.80;99.90
14783;DHT22;7483;50.498;12.138;2022-11-27T07:01:29;1.90;99.90
14783;DHT22;7483;50.498;12.138;2022-11-27T07:03:58;1.80;99.90
14783;DHT22;7483;50.498;12.138;2022-11-27T07:06:27;1.80;99.90
14783;DHT22;7483;50.498;12.138;2022-11-27T07:08:56;1.80;99.90
14783;DHT22;7483;50.498;12.138;2022-11-27T07:11:27;1.80;99.90
14783;DHT22;7483;50.498;12.138;2022-11-27T07:13:59;1.70;99.90
14783;DHT22;7483;50.498;12.138;2022-11-27T07:16:30;1.70;99.90
14783;DHT22;7483;50.498;12.138;2022-11-27T07:19:01;1.70;99.90
14783;DHT22;7483;50.498;12.138;2022-11-27T07:21:31;1.70;99.90
14783;DHT22;7483;50.498;12.138;2022-11-27T07:24:01;1.80;99.90
14783;DHT22;7483;50.498;12.138;2022-11-27T07:26:29;1.80;99.90
14783;DHT22;7483;50.498;12.138;2022-11-27T07:28:58;1.80;99.90
14783;DHT22;7483;50.498;12.138;2022-11-27T07:31:28;1.80;99.90
14783;DHT22;7483;50.498;12.138;2022-11-27T07:33:57;1.80;99.90
14783;DHT22;7483;50.498;12.138;2022-11-27T07:36:27;1.80;99.90
14783;DHT22;7483;50.498;12.138;2022-11-27T07:38:56;1.80;99.90
14783;DHT22;7483;50.498;12.138;2022-11-27T07:41:26;1.90;99.90
14783;DHT22;7483;50.498;12.138;2022-11-27T07:43:59;1.80;99.90
14783;DHT22;7483;50.498;12.138;2022-11-27T07:46:28;1.90;99.90
14783;DHT22;7483;50.498;12.138;2022-11-27T07:48:56;1.90;99.90
14783;DHT22;7483;50.498;12.138;2022-11-27T07:51:26;1.90;99.90
14783;DHT22;7483;50.498;12.138;2022-11-27T07:53:54;1.90;99.90
14783;DHT22;7483;50.498;12.138;2022-11-27T07:56:22;2.00;99.90
14783;DHT22;7483;50.498;12.138;2022-11-27T07:58:52;2.10;99.90
14783;DHT22;7483;50.498;12.138;2022-11-27T08:01:20;2.10;99.90
14783;DHT22;7483;50.498;12.138;2022-11-27T08:03:48;2.10;99.90
14783;DHT22;7483;50.498;12.138;2022-11-27T08:06:19;2.10;99.90
14783;DHT22;7483;50.498;12.138;2022-11-27T08:08:49;2.20;99.90
14783;DHT22;7483;50.498;12.138;2022-11-27T08:11:20;2.20;99.90
14783;DHT22;7483;50.498;12.138;2022-11-27T08:13:49;2.30;99.90
14783;DHT22;7483;50.498;12.138;2022-11-27T08:16:23;2.20;99.90
14783;DHT22;7483;50.498;12.138;2022-11-27T08:18:51;2.20;99.90
14783;DHT22;7483;50.498;12.138;2022-11-27T08:21:20;2.30;99.90
14783;DHT22;7483;50.498;12.138;2022-11-27T08:23:48;2.30;99.90
14783;DHT22;7483;50.498;12.138;2022-11-27T08:26:17;2.40;99.90
14783;DHT22;7483;50.498;12.138;2022-11-27T08:28:46;2.40;99.90
14783;DHT22;7483;50.498;12.138;2022-11-27T08:31:14;2.40;99.90
14783;DHT22;7483;50.498;12.138;2022-11-27T08:33:45;2.40;99.90
14783;DHT22;7483;50.498;12.138;2022-11-27T08:36:13;2.40;99.90
14783;DHT22;7483;50.498;12.138;2022-11-27T08:38:44;2.40;99.90
14783;DHT22;7483;50.498;12.138;2022-11-27T08:41:13;2.40;99.90
14783;DHT22;7483;50.498;12.138;2022-11-27T08:43:41;2.50;99.90
14783;DHT22;7483;50.498;12.138;2022-11-27T08:46:09;2.50;99.90
14783;DHT22;7483;50.498;12.138;2022-11-27T08:48:38;2.60;99.90
14783;DHT22;7483;50.498;12.138;2022-11-27T08:51:10;2.60;99.90
14783;DHT22;7483;50.498;12.138;2022-11-27T08:53:40;2.70;99.90
14783;DHT22;7483;50.498;12.138;2022-11-27T08:56:14;2.70;99.90
14783;DHT22;7483;50.498;12.138;2022-11-27T08:58:44;2.70;99.90
14783;DHT22;7483;50.498;12.138;2022-11-27T09:01:15;2.80;99.90
14783;DHT22;7483;50.498;12.138;2022-11-27T09:03:44;2.80;99.90
14783;DHT22;7483;50.498;12.138;2022-11-27T09:06:16;2.90;99.90
14783;DHT22;7483;50.498;12.138;2022-11-27T09:08:47;2.90;99.90
14783;DHT22;7483;50.498;12.138;2022-11-27T09:11:18;2.90;99.90
14783;DHT22;7483;50.498;12.138;2022-11-27T09:13:47;2.90;99.90
14783;DHT22;7483;50.498;12.138;2022-11-27T09:16:18;2.90;99.90
14783;DHT22;7483;50.498;12.138;2022-11-27T09:18:49;3.00;99.90
14783;DHT22;7483;50.498;12.138;2022-11-27T09:21:23;3.10;99.90
14783;DHT22;7483;50.498;12.138;2022-11-27T09:23:54;3.20;99.90
14783;DHT22;7483;50.498;12.138;2022-11-27T09:26:23;3.20;99.90
14783;DHT22;7483;50.498;12.138;2022-11-27T09:28:53;3.30;99.90
14783;DHT22;7483;50.498;12.138;2022-11-27T09:31:22;3.40;99.90
14783;DHT22;7483;50.498;12.138;2022-11-27T09:33:52;3.50;99.90
14783;DHT22;7483;50.498;12.138;2022-11-27T09:36:23;3.50;99.90
14783;DHT22;7483;50.498;12.138;2022-11-27T09:38:53;3.50;99.90
14783;DHT22;7483;50.498;12.138;2022-11-27T09:41:43;3.60;99.90
14783;DHT22;7483;50.498;12.138;2022-11-27T09:44:24;3.70;99.90
14783;DHT22;7483;50.498;12.138;2022-11-27T09:47:11;3.70;99.90
14783;DHT22;7483;50.498;12.138;2022-11-27T09:49:46;3.80;99.90
14783;DHT22;7483;50.498;12.138;2022-11-27T09:52:23;3.90;99.90
14783;DHT22;7483;50.498;12.138;2022-11-27T09:55:00;3.90;99.90
14783;DHT22;7483;50.498;12.138;2022-11-27T09:57:35;4.00;99.90
14783;DHT22;7483;50.498;12.138;2022-11-27T10:00:11;4.00;99.90
14783;DHT22;7483;50.498;12.138;2022-11-27T10:02:41;4.00;99.90
14783;DHT22;7483;50.498;12.138;2022-11-27T10:05:16;4.00;99.90
14783;DHT22;7483;50.498;12.138;2022-11-27T10:08:14;4.00;99.90
14783;DHT22;7483;50.498;12.138;2022-11-27T10:11:00;4.00;99.90
14783;DHT22;7483;50.498;12.138;2022-11-27T10:13:48;4.10;99.90
14783;DHT22;7483;50.498;12.138;2022-11-27T10:16:32;4.10;99.90
14783;DHT22;7483;50.498;12.138;2022-11-27T10:19:20;4.20;99.90
14783;DHT22;7483;50.498;12.138;2022-11-27T10:22:00;4.30;99.90
14783;DHT22;7483;50.498;12.138;2022-11-27T10:24:40;4.40;99.90
14783;DHT22;7483;50.498;12.138;2022-11-27T10:27:19;4.40;99.90
14783;DHT22;7483;50.498;12.138;2022-11-27T10:29:52;4.50;99.90
14783;DHT22;7483;50.498;12.138;2022-11-27T10:32:24;4.50;99.90
14783;DHT22;7483;50.498;12.138;2022-11-27T10:35:16;4.70;99.90
14783;DHT22;7483;50.498;12.138;2022-11-27T10:37:48;4.70;99.90
14783;DHT22;7483;50.498;12.138;2022-11-27T10:40:26;4.60;99.90
14783;DHT22;7483;50.498;12.138;2022-11-27T10:43:02;4.70;99.90
14783;DHT22;7483;50.498;12.138;2022-11-27T10:45:39;4.60;99.90
14783;DHT22;7483;50.498;12.138;2022-11-27T10:48:12;4.70;99.90
14783;DHT22;7483;50.498;12.138;2022-11-27T10:50:42;4.70;99.90
14783;DHT22;7483;50.498;12.138;2022-11-27T10:53:21;4.80;99.90
14783;DHT22;7483;50.498;12.138;2022-11-27T10:56:25;4.90;99.90
14783;DHT22;7483;50.498;12.138;2022-11-27T10:59:09;4.90;99.90
14783;DHT22;7483;50.498;12.138;2022-11-27T11:01:44;5.00;99.90
14783;DHT22;7483;50.498;12.138;2022-11-27T11:04:14;5.10;99.90
14783;DHT22;7483;50.498;12.138;2022-11-27T11:07:23;5.20;99.90
14783;DHT22;7483;50.498;12.138;2022-11-27T11:09:53;5.30;99.90
14783;DHT22;7483;50.498;12.138;2022-11-27T11:12:23;5.30;99.90
14783;DHT22;7483;50.498;12.138;2022-11-27T11:14:52;5.40;99.90
14783;DHT22;7483;50.498;12.138;2022-11-27T11:17:24;5.60;99.90
14783;DHT22;7483;50.498;12.138;2022-11-27T11:19:53;5.60;99.90
14783;DHT22;7483;50.498;12.138;2022-11-27T11:22:21;5.60;99.90
14783;DHT22;7483;50.498;12.138;2022-11-27T11:24:51;5.70;99.90
14783;DHT22;7483;50.498;12.138;2022-11-27T11:27:24;5.70;99.90
14783;DHT22;7483;50.498;12.138;2022-11-27T11:29:56;5.70;99.90
14783;DHT22;7483;50.498;12.138;2022-11-27T11:32:29;5.80;99.90
14783;DHT22;7483;50.498;12.138;2022-11-27T11:35:01;5.90;99.90
14783;DHT22;7483;50.498;12.138;2022-11-27T11:37:35;6.00;99.90
14783;DHT22;7483;50.498;12.138;2022-11-27T11:40:18;6.20;99.90
14783;DHT22;7483;50.498;12.138;2022-11-27T11:42:53;7.10;99.90
14783;DHT22;7483;50.498;12.138;2022-11-27T11:45:23;9.00;99.90
14783;DHT22;7483;50.498;12.138;2022-11-27T11:47:59;10.00;99.90
14783;DHT22;7483;50.498;12.138;2022-11-27T11:50:31;10.90;99.90
14783;DHT22;7483;50.498;12.138;2022-11-27T11:53:06;11.60;99.90
14783;DHT22;7483;50.498;12.138;2022-11-27T11:55:45;11.80;99.90
14783;DHT22;7483;50.498;12.138;2022-11-27T11:58:33;12.20;99.90
14783;DHT22;7483;50.498;12.138;2022-11-27T12:01:24;11.80;99.90
14783;DHT22;7483;50.498;12.138;2022-11-27T12:04:22;12.40;99.90
14783;DHT22;7483;50.498;12.138;2022-11-27T12:07:12;11.50;99.90
14783;DHT22;7483;50.498;12.138;2022-11-27T12:09:54;12.10;99.90
14783;DHT22;7483;50.498;12.138;2022-11-27T12:12:44;12.90;99.90
14783;DHT22;7483;50.498;12.138;2022-11-27T12:15:25;13.20;99.90
14783;DHT22;7483;50.498;12.138;2022-11-27T12:17:59;14.00;99.90
14783;DHT22;7483;50.498;12.138;2022-11-27T12:20:40;13.10;99.90
14783;DHT22;7483;50.498;12.138;2022-11-27T12:23:32;13.40;99.90
14783;DHT22;7483;50.498;12.138;2022-11-27T12:26:18;12.40;99.90
14783;DHT22;7483;50.498;12.138;2022-11-27T12:29:34;12.70;99.90
14783;DHT22;7483;50.498;12.138;2022-11-27T12:32:26;12.10;99.90
14783;DHT22;7483;50.498;12.138;2022-11-27T12:35:14;12.00;99.90
14783;DHT22;7483;50.498;12.138;2022-11-27T12:41:17;11.30;99.90
14783;DHT22;7483;50.498;12.138;2022-11-27T12:43:55;11.70;99.90
14783;DHT22;7483;50.498;12.138;2022-11-27T12:46:32;11.50;99.90
14783;DHT22;7483;50.498;12.138;2022-11-27T12:49:13;11.70;99.90
14783;DHT22;7483;50.498;12.138;2022-11-27T12:51:49;12.00;99.90
14783;DHT22;7483;50.498;12.138;2022-11-27T12:54:26;11.60;99.90
14783;DHT22;7483;50.498;12.138;2022-11-27T12:57:00;11.30;99.90
14783;DHT22;7483;50.498;12.138;2022-11-27T12:59:36;11.10;99.90
14783;DHT22;7483;50.498;12.138;2022-11-27T13:02:20;9.70;99.90
14783;DHT22;7483;50.498;12.138;2022-11-27T13:05:00;9.40;99.90
14783;DHT22;7483;50.498;12.138;2022-11-27T13:07:36;9.60;99.90
14783;DHT22;7483;50.498;12.138;2022-11-27T13:10:17;9.20;99.90
14783;DHT22;7483;50.498;12.138;2022-11-27T13:12:57;8.90;99.90
14783;DHT22;7483;50.498;12.138;2022-11-27T13:15:34;8.50;99.90
14783;DHT22;7483;50.498;12.138;2022-11-27T13:18:14;7.90;99.90
14783;DHT22;7483;50.498;12.138;2022-11-27T13:20:49;7.40;99.90
14783;DHT22;7483;50.498;12.138;2022-11-27T13:23:19;7.00;99.90
14783;DHT22;7483;50.498;12.138;2022-11-27T13:25:51;6.70;99.90
14783;DHT22;7483;50.498;12.138;2022-11-27T13:28:25;6.50;99.90
14783;DHT22;7483;50.498;12.138;2022-11-27T13:30:59;6.30;99.90
14783;DHT22;7483;50.498;12.138;2022-11-27T13:33:35;6.30;99.90
14783;DHT22;7483;50.498;12.138;2022-11-27T13:36:15;6.10;99.90
14783;DHT22;7483;50.498;12.138;2022-11-27T13:38:51;6.00;99.90
14783;DHT22;7483;50.498;12.138;2022-11-27T13:41:27;5.90;99.90
14783;DHT22;7483;50.498;12.138;2022-11-27T13:43:59;5.80;99.90
14783;DHT22;7483;50.498;12.138;2022-11-27T13:46:43;5.60;99.90
14783;DHT22;7483;50.498;12.138;2022-11-27T13:49:23;5.50;99.90
14783;DHT22;7483;50.498;12.138;2022-11-27T13:52:05;5.50;99.90
14783;DHT22;7483;50.498;12.138;2022-11-27T13:54:37;5.30;99.90
14783;DHT22;7483;50.498;12.138;2022-11-27T13:57:11;5.30;99.90
14783;DHT22;7483;50.498;12.138;2022-11-27T13:59:53;5.20;99.90
14783;DHT22;7483;50.498;12.138;2022-11-27T14:02:23;5.10;99.90
14783;DHT22;7483;50.498;12.138;2022-11-27T14:04:52;5.10;99.90
14783;DHT22;7483;50.498;12.138;2022-11-27T14:07:35;5.10;99.90
14783;DHT22;7483;50.498;12.138;2022-11-27T14:10:11;5.20;99.90
14783;DHT22;7483;50.498;12.138;2022-11-27T14:12:50;5.20;99.90
14783;DHT22;7483;50.498;12.138;2022-11-27T14:15:22;5.10;99.90
14783;DHT22;7483;50.498;12.138;2022-11-27T14:18:02;5.00;99.90
14783;DHT22;7483;50.498;12.138;2022-11-27T14:20:36;4.90;99.90
14783;DHT22;7483;50.498;12.138;2022-11-27T14:23:25;4.80;99.90
14783;DHT22;7483;50.498;12.138;2022-11-27T14:26:01;4.90;99.90
14783;DHT22;7483;50.498;12.138;2022-11-27T14:28:41;4.70;99.90
14783;DHT22;7483;50.498;12.138;2022-11-27T14:31:21;4.60;99.90
14783;DHT22;7483;50.498;12.138;2022-11-27T14:33:53;4.50;99.90
14783;DHT22;7483;50.498;12.138;2022-11-27T14:36:42;4.50;99.90
14783;DHT22;7483;50.498;12.138;2022-11-27T14:39:21;4.60;99.90
14783;DHT22;7483;50.498;12.138;2022-11-27T14:41:58;4.60;99.90
14783;DHT22;7483;50.498;12.138;2022-11-27T14:44:28;4.50;99.90
14783;DHT22;7483;50.498;12.138;2022-11-27T14:46:59;4.60;99.90
14783;DHT22;7483;50.498;12.138;2022-11-27T14:49:29;4.50;99.90
14783;DHT22;7483;50.498;12.138;2022-11-27T14:52:01;4.60;99.90
14783;DHT22;7483;50.498;12.138;2022-11-27T14:54:35;4.50;99.90
14783;DHT22;7483;50.498;12.138;2022-11-27T14:57:05;4.50;99.90
14783;DHT22;7483;50.498;12.138;2022-11-27T14:59:40;4.50;99.90
14783;DHT22;7483;50.498;12.138;2022-11-27T15:02:17;4.40;99.90
14783;DHT22;7483;50.498;12.138;2022-11-27T15:05:02;4.40;99.90
14783;DHT22;7483;50.498;12.138;2022-11-27T15:07:34;4.40;99.90
14783;DHT22;7483;50.498;12.138;2022-11-27T15:10:23;4.30;99.90
14783;DHT22;7483;50.498;12.138;2022-11-27T15:12:58;4.30;99.90
14783;DHT22;7483;50.498;12.138;2022-11-27T15:15:29;4.30;99.90
14783;DHT22;7483;50.498;12.138;2022-11-27T15:18:02;4.30;99.90
14783;DHT22;7483;50.498;12.138;2022-11-27T15:20:36;4.40;99.90
14783;DHT22;7483;50.498;12.138;2022-11-27T15:23:14;4.40;99.90
14783;DHT22;7483;50.498;12.138;2022-11-27T15:25:48;4.30;99.90
14783;DHT22;7483;50.498;12.138;2022-11-27T15:28:32;4.30;99.90
14783;DHT22;7483;50.498;12.138;2022-11-27T15:31:19;4.30;99.90
14783;DHT22;7483;50.498;12.138;2022-11-27T15:33:58;4.30;99.90
14783;DHT22;7483;50.498;12.138;2022-11-27T15:36:37;4.20;99.90
14783;DHT22;7483;50.498;12.138;2022-11-27T15:39:18;4.20;99.90
14783;DHT22;7483;50.498;12.138;2022-11-27T15:41:52;4.20;99.90
14783;DHT22;7483;50.498;12.138;2022-11-27T15:44:22;4.10;99.90
14783;DHT22;7483;50.498;12.138;2022-11-27T15:46:52;4.10;99.90
14783;DHT22;7483;50.498;12.138;2022-11-27T15:49:22;4.10;99.90
14783;DHT22;7483;50.498;12.138;2022-11-27T15:51:51;4.10;99.90
14783;DHT22;7483;50.498;12.138;2022-11-27T15:54:19;4.10;99.90
14783;DHT22;7483;50.498;12.138;2022-11-27T15:56:47;4.10;99.90
14783;DHT22;7483;50.498;12.138;2022-11-27T15:59:17;4.00;99.90
14783;DHT22;7483;50.498;12.138;2022-11-27T16:01:46;4.00;99.90
14783;DHT22;7483;50.498;12.138;2022-11-27T16:04:16;3.90;99.90
14783;DHT22;7483;50.498;12.138;2022-11-27T16:06:44;3.90;99.90
14783;DHT22;7483;50.498;12.138;2022-11-27T16:09:12;3.90;99.90
14783;DHT22;7483;50.498;12.138;2022-11-27T16:11:40;3.90;99.90
14783;DHT22;7483;50.498;12.138;2022-11-27T16:14:09;3.90;99.90
14783;DHT22;7483;50.498;12.138;2022-11-27T16:16:39;3.90;99.90
14783;DHT22;7483;50.498;12.138;2022-11-27T16:19:07;3.80;99.90
14783;DHT22;7483;50.498;12.138;2022-11-27T16:21:37;3.80;99.90
14783;DHT22;7483;50.498;12.138;2022-11-27T16:24:08;3.80;99.90
14783;DHT22;7483;50.498;12.138;2022-11-27T16:26:39;3.80;99.90
14783;DHT22;7483;50.498;12.138;2022-11-27T16:29:08;3.80;99.90